createdAt,value
2019-06-01T00:00:28.282Z,74.8
2019-06-01T00:05:28.217Z,75.5
2019-06-01T00:10:28.193Z,75.5
2019-06-01T00:15:28.263Z,75.3
2019-06-01T00:20:28.237Z,75.6
2019-06-01T00:25:28.232Z,75.7
2019-06-01T00:30:28.532Z,76
2019-06-01T00:35:28.608Z,75.8
2019-06-01T00:40:28.460Z,76
2019-06-01T00:45:28.471Z,76
2019-06-01T00:50:28.483Z,76.2
2019-06-01T00:55:28.820Z,76.4
2019-06-01T01:00:42.735Z,76.5
2019-06-01T01:05:28.748Z,76.8
2019-06-01T01:10:29.220Z,76.9
2019-06-01T01:15:29.719Z,76.7
2019-06-01T01:20:29.515Z,77.1
2019-06-01T01:25:29.522Z,77
2019-06-01T01:30:29.478Z,77.2
2019-06-01T01:35:29.504Z,77.1
2019-06-01T01:40:29.503Z,77.1
2019-06-01T01:45:29.472Z,77.3
2019-06-01T01:50:29.489Z,77.3
2019-06-01T01:55:29.526Z,77.6
2019-06-01T02:00:29.478Z,77.6
2019-06-01T02:05:29.533Z,77.9
2019-06-01T02:10:29.740Z,78
2019-06-01T02:15:29.735Z,78.1
2019-06-01T02:20:29.998Z,78.3
2019-06-01T02:25:30.014Z,78.3
2019-06-01T02:30:30.414Z,78.4
2019-06-01T02:35:30.271Z,78.6
2019-06-01T02:40:31.243Z,78.8
2019-06-01T02:45:31.372Z,78.7
2019-06-01T02:50:31.172Z,78.8
2019-06-01T02:55:31.324Z,79
2019-06-01T03:00:32.323Z,78.8
2019-06-01T03:05:32.071Z,79.1
2019-06-01T03:10:32.055Z,79.3
2019-06-01T03:15:32.332Z,79.4
2019-06-01T03:20:32.334Z,79.5
2019-06-01T03:25:33.351Z,79.5
2019-06-01T03:30:34.238Z,79.5
2019-06-01T03:35:34.563Z,79.7
2019-06-01T03:40:33.907Z,79.6
2019-06-01T03:45:35.164Z,80
2019-06-01T03:50:33.960Z,80
2019-06-01T03:55:36.844Z,80.3
2019-06-01T04:00:33.952Z,80.3
2019-06-01T04:05:36.668Z,80.4
2019-06-01T04:10:33.871Z,80.6
2019-06-01T04:15:34.485Z,80.9
2019-06-01T04:20:34.642Z,81.2
2019-06-01T04:25:35.588Z,81.4
2019-06-01T04:30:36.197Z,81.6
2019-06-01T04:35:37.558Z,82.2
2019-06-01T04:40:35.513Z,82.6
2019-06-01T04:45:34.990Z,83
2019-06-01T04:50:35.034Z,83.6
2019-06-01T04:55:35.009Z,83.9
2019-06-01T05:00:35.021Z,84.5
2019-06-01T05:05:35.245Z,84.9
2019-06-01T05:10:35.038Z,85.6
2019-06-01T05:15:35.039Z,86.3
2019-06-01T05:20:35.105Z,86.7
2019-06-01T05:25:35.115Z,87.4
2019-06-01T05:30:37.163Z,87.6
2019-06-01T05:35:37.144Z,88.5
2019-06-01T05:40:37.086Z,89.2
2019-06-01T05:45:37.085Z,89.9
2019-06-01T05:50:37.074Z,90.2
2019-06-01T05:55:37.056Z,90.4
2019-06-01T06:00:37.063Z,90.5
2019-06-01T06:05:37.061Z,90.5
2019-06-01T06:10:37.118Z,90.4
2019-06-01T06:15:40.335Z,90.3
2019-06-01T06:20:40.319Z,89.9
2019-06-01T06:25:41.462Z,89.3
2019-06-01T06:30:41.039Z,89.3
2019-06-01T06:35:40.909Z,89.1
2019-06-01T06:40:42.591Z,88.7
2019-06-01T06:45:42.829Z,88.4
2019-06-01T06:50:42.824Z,88.5
2019-06-01T06:55:42.844Z,88.7
2019-06-01T07:00:42.908Z,87.7
2019-06-01T07:05:43.156Z,85.8
2019-06-01T07:10:48.028Z,84.8
2019-06-01T07:15:47.915Z,84
2019-06-01T07:20:47.906Z,83.3
2019-06-01T07:25:47.928Z,83.6
2019-06-01T07:30:50.612Z,81.1
2019-06-01T07:35:48.040Z,79.9
2019-06-01T07:40:49.376Z,78.1
2019-06-01T07:45:48.993Z,76.4
2019-06-01T07:50:48.643Z,76.5
2019-06-01T07:55:55.052Z,76.1
2019-06-01T08:00:54.919Z,75.4
2019-06-01T08:05:59.917Z,74.4
2019-06-01T08:10:59.915Z,71.9
2019-06-01T08:16:01.127Z,72.1
2019-06-01T08:21:01.126Z,71.3
2019-06-01T08:26:01.097Z,69
2019-06-01T08:31:01.099Z,68.3
2019-06-01T08:36:01.361Z,67.4
2019-06-01T08:41:01.110Z,66.7
2019-06-01T08:46:01.119Z,64.6
2019-06-01T08:51:01.459Z,62.7
2019-06-01T08:56:01.127Z,62.5
2019-06-01T09:01:01.148Z,61.5
2019-06-01T09:06:01.179Z,59
2019-06-01T09:11:01.116Z,60.5
2019-06-01T09:16:01.190Z,60.2
2019-06-01T09:21:01.142Z,60
2019-06-01T09:26:02.912Z,58.2
2019-06-01T09:31:02.801Z,57.2
2019-06-01T09:36:03.099Z,56.6
2019-06-01T09:41:03.208Z,54.6
2019-06-01T09:46:03.080Z,54
2019-06-01T09:51:03.132Z,52.5
2019-06-01T09:56:03.602Z,53.7
2019-06-01T10:01:05.044Z,52.4
2019-06-01T10:06:05.781Z,51.4
2019-06-01T10:11:05.017Z,48.6
2019-06-01T10:16:05.250Z,51.3
2019-06-01T10:21:05.012Z,48.2
2019-06-01T10:26:05.036Z,47.3
2019-06-01T10:31:05.030Z,47.3
2019-06-01T10:36:18.986Z,47.5
2019-06-01T10:41:05.035Z,44
2019-06-01T10:46:05.112Z,43.9
2019-06-01T10:51:05.096Z,46
2019-06-01T10:56:05.114Z,46.3
2019-06-01T11:01:05.144Z,41.1
2019-06-01T11:06:05.035Z,43.2
2019-06-01T11:11:05.231Z,42.5
2019-06-01T11:16:05.134Z,40.9
2019-06-01T11:21:05.073Z,40.4
2019-06-01T11:26:05.117Z,41.7
2019-06-01T11:31:05.060Z,41.8
2019-06-01T11:36:05.069Z,41.7
2019-06-01T11:41:05.102Z,40.3
2019-06-01T11:46:05.071Z,38.3
2019-06-01T11:51:05.093Z,40.8
2019-06-01T11:56:05.078Z,38
2019-06-01T12:01:05.040Z,39.4
2019-06-01T12:06:05.057Z,40.6
2019-06-01T12:11:05.120Z,36.5
2019-06-01T12:16:05.268Z,40.3
2019-06-01T12:21:05.201Z,38.9
2019-06-01T12:26:05.083Z,36.8
2019-06-01T12:31:05.257Z,38.8
2019-06-01T12:36:05.564Z,37.1
2019-06-01T12:41:05.341Z,37.1
2019-06-01T12:46:07.448Z,36.5
2019-06-01T12:51:06.653Z,37.1
2019-06-01T12:56:06.658Z,36.9
2019-06-01T13:01:06.827Z,36.4
2019-06-01T13:06:06.891Z,34
2019-06-01T13:11:06.580Z,34.5
2019-06-01T13:16:06.515Z,33.4
2019-06-01T13:21:06.616Z,34.6
2019-06-01T13:26:06.617Z,37.6
2019-06-01T13:31:06.687Z,35.2
2019-06-01T13:36:06.694Z,35.1
2019-06-01T13:41:06.535Z,35.5
2019-06-01T13:46:07.782Z,35
2019-06-01T13:51:08.734Z,35.2
2019-06-01T13:56:09.413Z,35.3
2019-06-01T14:01:10.962Z,34.7
2019-06-01T14:06:06.825Z,34.2
2019-06-01T14:11:06.582Z,34.6
2019-06-01T14:16:06.587Z,34.4
2019-06-01T14:21:06.591Z,34.4
2019-06-01T14:26:06.644Z,34.3
2019-06-01T14:31:06.640Z,34.2
2019-06-01T14:36:06.616Z,33.5
2019-06-01T14:41:06.697Z,33
2019-06-01T14:46:06.675Z,34.9
2019-06-01T14:51:06.601Z,33.8
2019-06-01T14:56:06.808Z,34.1
2019-06-01T15:01:07.009Z,34.9
2019-06-01T15:06:06.871Z,35.1
2019-06-01T15:11:06.822Z,35.1
2019-06-01T15:16:06.944Z,35.2
2019-06-01T15:21:06.884Z,35.1
2019-06-01T15:26:06.875Z,35.3
2019-06-01T15:31:07.303Z,34.4
2019-06-01T15:36:07.127Z,35.6
2019-06-01T15:41:07.144Z,35.8
2019-06-01T15:46:07.118Z,33.8
2019-06-01T15:51:07.426Z,35
2019-06-01T15:56:07.183Z,35.7
2019-06-01T16:01:07.384Z,35.3
2019-06-01T16:06:08.037Z,35
2019-06-01T16:11:08.054Z,33.7
2019-06-01T16:16:08.606Z,34.5
2019-06-01T16:21:08.548Z,34.1
2019-06-01T16:26:15.596Z,34.4
2019-06-01T16:31:08.534Z,35.1
2019-06-01T16:36:08.537Z,34.9
2019-06-01T16:41:09.438Z,35.5
2019-06-01T16:46:09.410Z,36.2
2019-06-01T16:51:09.423Z,36.6
2019-06-01T16:56:09.443Z,36.4
2019-06-01T17:01:09.430Z,38.3
2019-06-01T17:06:09.667Z,38.6
2019-06-01T17:11:09.746Z,38
2019-06-01T17:16:09.888Z,37.4
2019-06-01T17:21:10.460Z,38.1
2019-06-01T17:26:10.140Z,38.2
2019-06-01T17:31:10.150Z,39.1
2019-06-01T17:36:10.372Z,39.9
2019-06-01T17:41:10.161Z,39.6
2019-06-01T17:46:10.237Z,40.2
2019-06-01T17:51:10.168Z,40.7
2019-06-01T17:56:10.238Z,40.5
2019-06-01T18:01:10.151Z,40.6
2019-06-01T18:06:10.199Z,41.4
2019-06-01T18:11:10.268Z,41.9
2019-06-01T18:16:10.371Z,42.5
2019-06-01T18:21:10.441Z,42.9
2019-06-01T18:26:10.942Z,43.8
2019-06-01T18:31:10.724Z,44.6
2019-06-01T18:36:11.314Z,44.9
2019-06-01T18:41:16.653Z,46.3
2019-06-01T18:46:10.436Z,47.7
2019-06-01T18:51:12.199Z,49.9
2019-06-01T18:56:10.750Z,51.8
2019-06-01T19:01:10.812Z,53.3
2019-06-01T19:06:11.897Z,54.3
2019-06-01T19:11:29.175Z,55.1
2019-06-01T19:16:18.069Z,56
2019-06-01T19:21:31.540Z,56.8
2019-06-01T19:26:34.618Z,57.7
2019-06-01T19:31:34.609Z,58.2
2019-06-01T19:36:34.561Z,58.8
2019-06-01T19:41:44.023Z,59.4
2019-06-01T19:46:34.619Z,59.9
2019-06-01T19:52:15.380Z,60.2
2019-06-01T19:56:57.950Z,60.6
2019-06-01T20:01:59.550Z,61
2019-06-01T20:07:17.373Z,61.4
2019-06-01T20:12:16.384Z,61.6
2019-06-01T20:17:27.812Z,61.9
2019-06-01T20:22:26.306Z,61.9
2019-06-01T20:27:39.123Z,62.5
2019-06-01T20:32:32.997Z,62.7
2019-06-01T20:37:33.088Z,63.1
2019-06-01T20:42:38.756Z,63.5
2019-06-01T20:47:41.014Z,63.9
2019-06-01T20:52:41.045Z,64.3
2019-06-01T21:04:31.995Z,65
2019-06-01T21:09:41.643Z,65.3
2019-06-01T21:14:44.414Z,65.9
2019-06-01T21:19:45.311Z,66
2019-06-01T21:24:47.382Z,66.4
2019-06-01T21:29:47.624Z,66.8
2019-06-01T21:34:47.956Z,67.2
2019-06-01T21:40:17.304Z,67.5
2019-06-01T21:45:33.085Z,67.4
2019-06-01T21:50:49.222Z,68.1
2019-06-01T21:55:49.135Z,68.6
2019-06-01T22:00:49.147Z,68.7
2019-06-01T22:05:49.175Z,69
2019-06-01T22:10:49.209Z,69
2019-06-01T22:15:49.185Z,69.6
2019-06-01T22:20:49.189Z,70
2019-06-01T22:25:49.223Z,70.2
2019-06-01T22:30:49.158Z,70.3
2019-06-01T22:35:49.194Z,70.7
2019-06-01T22:40:49.178Z,70.8
2019-06-01T22:45:49.325Z,71
2019-06-01T22:50:49.253Z,71.1
2019-06-01T22:55:49.229Z,71.5
2019-06-01T23:00:49.225Z,71.7
2019-06-01T23:05:49.230Z,72
2019-06-01T23:10:49.705Z,72.1
2019-06-01T23:15:49.204Z,72.4
2019-06-01T23:20:49.233Z,72.7
2019-06-01T23:25:49.256Z,72.7
2019-06-01T23:30:49.296Z,73.1
2019-06-01T23:35:49.303Z,73.1
2019-06-01T23:40:49.228Z,73.4
2019-06-01T23:45:49.264Z,73.7
2019-06-01T23:50:49.515Z,74
2019-06-01T23:55:51.517Z,74.1
